createdAt,value
2019-05-11T00:00:35.675Z,101187.52
2019-05-11T00:03:39.573Z,101188.81
2019-05-11T00:06:43.409Z,101190.09
2019-05-11T00:09:57.636Z,101195.75
2019-05-11T00:12:52.962Z,101192.66
2019-05-11T00:15:56.933Z,101186.97
2019-05-11T00:19:00.858Z,101196.63
2019-05-11T00:22:04.843Z,101200.12
2019-05-11T00:25:08.929Z,101200.13
2019-05-11T00:28:12.814Z,101196.59
2019-05-11T00:31:16.627Z,101199.66
2019-05-11T00:34:20.470Z,101202.71
2019-05-11T00:37:24.286Z,101201.29
2019-05-11T00:40:28.270Z,101192.52
2019-05-11T00:43:32.082Z,101201.29
2019-05-11T00:46:36.061Z,101195.19
2019-05-11T00:49:40.008Z,101209.58
2019-05-11T00:52:43.883Z,101209.13
2019-05-11T00:55:47.807Z,101207.34
2019-05-11T00:58:51.756Z,101204.66
2019-05-11T01:01:55.598Z,101197.59
2019-05-11T01:04:59.502Z,101194.02
2019-05-11T01:08:03.461Z,101191.80
2019-05-11T01:11:07.273Z,101192.66
2019-05-11T01:14:11.111Z,101190.42
2019-05-11T01:17:14.999Z,101192.63
2019-05-11T01:20:18.987Z,101192.62
2019-05-11T01:23:22.885Z,101196.50
2019-05-11T01:26:26.815Z,101193.06
2019-05-11T01:29:30.704Z,101193.02
2019-05-11T01:32:34.534Z,101204.32
2019-05-11T01:35:38.378Z,101198.13
2019-05-11T01:38:42.231Z,101200.23
2019-05-11T01:41:46.073Z,101197.16
2019-05-11T01:44:49.902Z,101194.98
2019-05-11T01:47:53.755Z,101198.05
2019-05-11T01:50:57.613Z,101198.45
2019-05-11T01:54:01.433Z,101202.38
2019-05-11T01:57:05.337Z,101201.91
2019-05-11T02:00:11.000Z,101202.27
2019-05-11T02:03:14.836Z,101205.69
2019-05-11T02:06:18.818Z,101207.00
2019-05-11T02:09:22.583Z,101203.97
2019-05-11T02:12:26.390Z,101206.55
2019-05-11T02:15:30.366Z,101211.30
2019-05-11T02:18:34.202Z,101218.64
2019-05-11T02:21:38.053Z,101220.91
2019-05-11T02:24:41.974Z,101224.84
2019-05-11T02:27:45.862Z,101218.55
2019-05-11T02:30:49.686Z,101212.48
2019-05-11T02:33:53.541Z,101215.04
2019-05-11T02:36:57.394Z,101218.52
2019-05-11T02:40:01.210Z,101214.43
2019-05-11T02:43:05.111Z,101214.81
2019-05-11T02:46:09.111Z,101221.80
2019-05-11T02:49:13.052Z,101224.80
2019-05-11T02:52:17.411Z,101222.59
2019-05-11T02:55:21.229Z,101237.09
2019-05-11T02:58:25.081Z,101236.58
2019-05-11T03:01:28.967Z,101232.95
2019-05-11T03:04:32.778Z,101235.65
2019-05-11T03:07:36.599Z,101232.17
2019-05-11T03:10:40.594Z,101240.81
2019-05-11T03:13:44.373Z,101238.27
2019-05-11T03:16:50.937Z,101242.61
2019-05-11T03:19:54.762Z,101242.91
2019-05-11T03:22:58.668Z,101249.34
2019-05-11T03:26:02.580Z,101249.71
2019-05-11T03:29:06.500Z,101254.83
2019-05-11T03:32:10.421Z,101251.95
2019-05-11T03:35:14.361Z,101252.89
2019-05-11T03:38:18.169Z,101260.70
2019-05-11T03:41:22.000Z,101257.16
2019-05-11T03:44:25.821Z,101262.95
2019-05-11T03:47:29.687Z,101257.64
2019-05-11T03:50:33.511Z,101255.39
2019-05-11T03:53:37.341Z,101258.95
2019-05-11T03:56:41.167Z,101267.25
2019-05-11T03:59:45.077Z,101263.36
2019-05-11T04:02:48.997Z,101272.55
2019-05-11T04:05:52.810Z,101273.53
2019-05-11T04:08:56.926Z,101268.74
2019-05-11T04:12:00.745Z,101278.46
2019-05-11T04:15:04.836Z,101271.47
2019-05-11T04:18:08.699Z,101277.15
2019-05-11T04:21:12.526Z,101275.09
2019-05-11T04:24:16.432Z,101273.84
2019-05-11T04:27:20.372Z,101274.47
2019-05-11T04:30:24.292Z,101277.15
2019-05-11T04:33:32.571Z,101270.60
2019-05-11T04:36:33.718Z,101275.52
2019-05-11T04:39:37.549Z,101277.34
2019-05-11T04:42:54.280Z,101276.12
2019-05-11T04:45:47.113Z,101269.67
2019-05-11T04:48:51.001Z,101275.89
2019-05-11T04:51:54.992Z,101281.23
2019-05-11T04:54:58.798Z,101290.14
2019-05-11T04:58:02.744Z,101298.98
2019-05-11T05:01:06.718Z,101295.62
2019-05-11T05:04:14.585Z,101297.89
2019-05-11T05:07:16.733Z,101300.65
2019-05-11T05:10:22.401Z,101309.06
2019-05-11T05:13:29.295Z,101311.73
2019-05-11T05:16:31.981Z,101313.16
2019-05-11T05:19:35.928Z,101311.01
2019-05-11T05:22:39.717Z,101316.36
2019-05-11T05:25:45.102Z,101314.23
2019-05-11T05:28:48.994Z,101311.31
2019-05-11T05:31:52.831Z,101319.23
2019-05-11T05:34:56.649Z,101319.28
2019-05-11T05:38:00.515Z,101322.89
2019-05-11T05:41:04.314Z,101319.00
2019-05-11T05:44:08.131Z,101323.44
2019-05-11T05:47:12.043Z,101329.63
2019-05-11T05:50:16.317Z,101344.14
2019-05-11T05:53:20.134Z,101337.58
2019-05-11T05:56:23.944Z,101341.13
2019-05-11T05:59:27.752Z,101338.06
2019-05-11T06:02:31.673Z,101335.47
2019-05-11T06:05:35.482Z,101332.37
2019-05-11T06:08:43.033Z,101324.03
2019-05-11T06:11:44.930Z,101329.28
2019-05-11T06:14:48.720Z,101327.48
2019-05-11T06:17:52.645Z,101341.08
2019-05-11T06:20:56.544Z,101339.67
2019-05-11T06:24:06.278Z,101344.00
2019-05-11T06:27:06.031Z,101343.03
2019-05-11T06:30:10.395Z,101342.03
2019-05-11T06:33:14.250Z,101344.59
2019-05-11T06:36:18.148Z,101346.27
2019-05-11T06:39:22.151Z,101348.34
2019-05-11T06:42:25.986Z,101350.00
2019-05-11T06:45:29.793Z,101348.53
2019-05-11T06:48:33.765Z,101355.07
2019-05-11T06:51:40.421Z,101360.65
2019-05-11T06:54:43.269Z,101356.17
2019-05-11T06:57:47.091Z,101363.57
2019-05-11T07:00:50.900Z,101364.62
2019-05-11T07:03:54.781Z,101367.05
2019-05-11T07:06:58.582Z,101368.55
2019-05-11T07:10:02.481Z,101375.47
2019-05-11T07:13:06.280Z,101369.85
2019-05-11T07:16:10.165Z,101375.58
2019-05-11T07:19:13.965Z,101375.39
2019-05-11T07:22:17.780Z,101384.02
2019-05-11T07:25:21.578Z,101388.35
2019-05-11T07:28:25.412Z,101397.58
2019-05-11T07:31:29.268Z,101386.35
2019-05-11T07:34:33.222Z,101394.07
2019-05-11T07:37:38.530Z,101395.52
2019-05-11T07:40:42.701Z,101393.11
2019-05-11T07:43:48.494Z,101402.91
2019-05-11T07:46:52.143Z,101399.97
2019-05-11T07:49:57.898Z,101394.58
2019-05-11T07:53:01.554Z,101393.31
2019-05-11T07:56:05.473Z,101397.80
2019-05-11T07:59:09.300Z,101401.42
2019-05-11T08:02:13.120Z,101400.40
2019-05-11T08:05:18.019Z,101408.82
2019-05-11T08:08:25.113Z,101393.48
2019-05-11T08:11:31.106Z,101393.13
2019-05-11T08:14:33.217Z,101402.08
2019-05-11T08:17:38.084Z,101401.86
2019-05-11T08:20:42.026Z,101408.17
2019-05-11T08:23:48.104Z,101410.41
2019-05-11T08:26:51.401Z,101399.65
2019-05-11T08:29:55.209Z,101402.13
2019-05-11T08:32:59.059Z,101404.70
2019-05-11T08:36:02.891Z,101408.85
2019-05-11T08:39:07.939Z,101403.87
2019-05-11T08:42:11.741Z,101400.02
2019-05-11T08:45:23.668Z,101399.63
2019-05-11T08:48:21.920Z,101397.34
2019-05-11T08:51:27.886Z,101403.72
2019-05-11T08:54:31.380Z,101408.02
2019-05-11T08:57:35.190Z,101403.61
2019-05-11T09:00:39.218Z,101401.03
2019-05-11T09:03:43.001Z,101399.70
2019-05-11T09:06:47.955Z,101404.88
2019-05-11T09:09:51.968Z,101399.55
2019-05-11T09:12:55.793Z,101404.95
2019-05-11T09:15:59.608Z,101409.61
2019-05-11T09:19:03.495Z,101409.08
2019-05-11T09:22:08.314Z,101411.56
2019-05-11T09:25:12.849Z,101416.42
2019-05-11T09:28:18.063Z,101415.12
2019-05-11T09:31:22.023Z,101426.80
2019-05-11T09:34:29.025Z,101416.79
2019-05-11T09:37:32.833Z,101423.05
2019-05-11T09:40:38.556Z,101428.52
2019-05-11T09:43:42.197Z,101433.03
2019-05-11T09:46:47.791Z,101427.09
2019-05-11T09:49:51.587Z,101427.67
2019-05-11T09:52:55.417Z,101435.70
2019-05-11T09:55:59.215Z,101429.06
2019-05-11T09:59:03.029Z,101428.43
2019-05-11T10:02:07.972Z,101425.85
2019-05-11T10:05:12.044Z,101436.17
2019-05-11T10:08:18.143Z,101435.15
2019-05-11T10:11:21.373Z,101427.65
2019-05-11T10:14:25.203Z,101427.84
2019-05-11T10:17:29.007Z,101435.89
2019-05-11T10:20:32.829Z,101445.07
2019-05-11T10:23:38.241Z,101439.60
2019-05-11T10:26:42.294Z,101438.75
2019-05-11T10:29:48.348Z,101438.75
2019-05-11T10:32:51.660Z,101441.09
2019-05-11T10:35:55.580Z,101443.77
2019-05-11T10:38:59.414Z,101442.73
2019-05-11T10:42:03.282Z,101440.43
2019-05-11T10:45:09.072Z,101434.41
2019-05-11T10:48:13.123Z,101438.31
2019-05-11T10:51:18.390Z,101442.67
2019-05-11T10:54:22.361Z,101443.98
2019-05-11T10:57:28.296Z,101442.42
2019-05-11T11:00:31.872Z,101444.23
2019-05-11T11:03:37.784Z,101441.80
2019-05-11T11:06:41.289Z,101440.20
2019-05-11T11:09:45.083Z,101444.36
2019-05-11T11:12:49.243Z,101444.45
2019-05-11T11:15:53.091Z,101449.23
2019-05-11T11:18:58.825Z,101444.75
2019-05-11T11:22:31.892Z,101441.80
2019-05-11T11:25:08.634Z,101436.63
2019-05-11T11:28:12.507Z,101438.41
2019-05-11T11:31:18.559Z,101439.63
2019-05-11T11:34:21.919Z,101446.33
2019-05-11T11:37:27.948Z,101435.82
2019-05-11T11:40:31.402Z,101445.49
2019-05-11T11:43:37.603Z,101437.98
2019-05-11T11:46:52.098Z,101441.70
2019-05-11T11:49:47.600Z,101440.81
2019-05-11T11:52:51.587Z,101432.45
2019-05-11T11:55:55.395Z,101437.06
2019-05-11T11:58:59.227Z,101427.60
2019-05-11T12:02:03.156Z,101432.24
2019-05-11T12:05:08.831Z,101442.08
2019-05-11T12:08:12.819Z,101444.83
2019-05-11T12:11:18.662Z,101440.92
2019-05-11T12:14:22.279Z,101455.78
2019-05-11T12:17:28.403Z,101454.92
2019-05-11T12:20:31.809Z,101453.92
2019-05-11T12:23:37.461Z,101457.67
2019-05-11T12:26:41.176Z,101454.33
2019-05-11T12:29:45.100Z,101452.59
2019-05-11T12:32:50.315Z,101457.41
2019-05-11T12:35:54.180Z,101463.58
2019-05-11T12:38:58.160Z,101461.64
2019-05-11T12:42:01.996Z,101465.00
2019-05-11T12:45:07.529Z,101466.11
2019-05-11T12:48:11.596Z,101467.17
2019-05-11T12:51:15.506Z,101467.87
2019-05-11T12:54:19.419Z,101458.22
2019-05-11T12:57:23.246Z,101461.12
2019-05-11T13:00:31.143Z,101466.33
2019-05-11T13:03:33.373Z,101475.19
2019-05-11T13:06:38.476Z,101475.16
2019-05-11T13:09:42.591Z,101487.53
2019-05-11T13:12:46.457Z,101476.97
2019-05-11T13:15:50.274Z,101488.79
2019-05-11T13:18:54.076Z,101488.23
2019-05-11T13:21:58.967Z,101501.59
2019-05-11T13:25:02.961Z,101498.73
2019-05-11T13:28:08.557Z,101491.64
2019-05-11T13:31:12.551Z,101501.23
2019-05-11T13:34:17.951Z,101501.94
2019-05-11T13:37:22.056Z,101496.52
2019-05-11T13:40:27.692Z,101499.45
2019-05-11T13:43:31.456Z,101501.78
2019-05-11T13:46:35.261Z,101501.95
2019-05-11T13:49:39.118Z,101497.45
2019-05-11T13:52:42.949Z,101502.77
2019-05-11T13:55:48.126Z,101511.49
2019-05-11T13:58:52.102Z,101512.13
2019-05-11T14:01:58.084Z,101515.81
2019-05-11T14:05:01.567Z,101513.23
2019-05-11T14:08:07.908Z,101507.98
2019-05-11T14:11:11.053Z,101518.95
2019-05-11T14:14:14.992Z,101515.21
2019-05-11T14:17:18.827Z,101523.22
2019-05-11T14:20:22.704Z,101527.55
2019-05-11T14:23:29.105Z,101533.46
2019-05-11T14:26:32.162Z,101528.87
2019-05-11T14:29:37.910Z,101540.94
2019-05-11T14:32:41.571Z,101548.16
2019-05-11T14:35:45.394Z,101547.34
2019-05-11T14:38:49.326Z,101545.73
2019-05-11T14:41:53.138Z,101562.46
2019-05-11T14:44:58.932Z,101562.61
2019-05-11T14:48:02.548Z,101564.38
2019-05-11T14:51:08.578Z,101568.01
2019-05-11T14:54:12.116Z,101568.27
2019-05-11T14:57:15.945Z,101568.70
2019-05-11T15:00:19.943Z,101582.66
2019-05-11T15:03:23.769Z,101593.65
2019-05-11T15:06:27.998Z,101593.92
2019-05-11T15:09:31.920Z,101590.91
2019-05-11T15:12:37.857Z,101599.48
2019-05-11T15:15:41.518Z,101606.55
2019-05-11T15:18:45.346Z,101605.72
2019-05-11T15:21:49.238Z,101611.51
2019-05-11T15:24:53.144Z,101614.08
2019-05-11T15:27:58.489Z,101624.63
2019-05-11T15:31:02.464Z,101626.45
2019-05-11T15:34:08.574Z,101633.94
2019-05-11T15:37:12.037Z,101626.16
2019-05-11T15:40:18.679Z,101635.48
2019-05-11T15:43:22.653Z,101638.91
2019-05-11T15:46:28.272Z,101637.47
2019-05-11T15:49:32.286Z,101645.92
2019-05-11T15:52:39.882Z,101649.48
2019-05-11T15:55:42.487Z,101656.16
2019-05-11T15:58:48.588Z,101662.92
2019-05-11T16:01:54.618Z,101667.16
2019-05-11T16:04:58.286Z,101683.26
2019-05-11T16:08:02.247Z,101676.55
2019-05-11T16:11:08.173Z,101681.64
2019-05-11T16:14:11.716Z,101688.11
2019-05-11T16:17:15.529Z,101693.41
2019-05-11T16:20:20.022Z,101701.95
2019-05-11T16:23:23.844Z,101706.76
2019-05-11T16:26:28.209Z,101712.72
2019-05-11T16:29:32.251Z,101709.27
2019-05-11T16:32:38.412Z,101714.13
2019-05-11T16:35:41.658Z,101720.75
2019-05-11T16:38:45.573Z,101729.94
2019-05-11T16:41:49.399Z,101733.66
2019-05-11T16:44:53.257Z,101745.48
2019-05-11T16:47:58.836Z,101745.23
2019-05-11T16:51:02.694Z,101747.91
2019-05-11T16:54:06.677Z,101756.88
2019-05-11T16:57:10.619Z,101760.70
2019-05-11T17:00:14.702Z,101764.32
2019-05-11T17:03:18.688Z,101762.81
2019-05-11T17:06:22.491Z,101774.91
2019-05-11T17:09:26.467Z,101774.59
2019-05-11T17:12:30.299Z,101776.02
2019-05-11T17:15:34.199Z,101786.56
2019-05-11T17:18:38.175Z,101786.52
2019-05-11T17:21:42.019Z,101795.72
2019-05-11T17:24:48.313Z,101799.56
2019-05-11T17:27:51.477Z,101804.91
2019-05-11T17:30:55.295Z,101815.05
2019-05-11T17:33:59.177Z,101822.84
2019-05-11T17:37:03.013Z,101826.58
2019-05-11T17:40:09.062Z,101832.29
2019-05-11T17:43:12.620Z,101836.13
2019-05-11T17:46:18.476Z,101843.40
2019-05-11T17:49:22.123Z,101848.02
2019-05-11T17:52:28.112Z,101856.59
2019-05-11T17:55:31.599Z,101864.01
2019-05-11T17:58:37.724Z,101872.05
2019-05-11T18:01:41.015Z,101876.47
2019-05-11T18:04:44.860Z,101886.25
2019-05-11T18:07:48.752Z,101882.81
2019-05-11T18:10:52.657Z,101895.45
2019-05-11T18:13:58.556Z,101893.03
2019-05-11T18:17:02.152Z,101899.52
2019-05-11T18:20:16.652Z,101902.56
2019-05-11T18:23:11.991Z,101900.65
2019-05-11T18:26:17.941Z,101905.87
2019-05-11T18:29:21.460Z,101903.30
2019-05-11T18:32:25.297Z,101910.41
2019-05-11T18:35:29.106Z,101914.53
2019-05-11T18:38:32.964Z,101918.75
2019-05-11T18:41:39.099Z,101927.67
2019-05-11T18:44:43.130Z,101933.94
2019-05-11T18:47:48.877Z,101944.56
2019-05-11T18:50:52.496Z,101952.02
2019-05-11T18:53:58.466Z,101955.75
2019-05-11T18:57:01.940Z,101960.13
2019-05-11T19:00:08.266Z,101961.39
2019-05-11T19:03:12.368Z,101966.27
2019-05-11T19:06:18.446Z,101977.09
2019-05-11T19:09:21.807Z,101975.36
2019-05-11T19:12:27.668Z,101975.93
2019-05-11T19:15:31.349Z,101987.95
2019-05-11T19:18:35.151Z,101979.68
2019-05-11T19:21:39.012Z,101993.83
2019-05-11T19:24:42.829Z,102001.83
2019-05-11T19:27:50.249Z,102004.96
2019-05-11T19:30:52.288Z,102008.52
2019-05-11T19:33:58.190Z,102013.86
2019-05-11T19:37:01.811Z,102025.77
2019-05-11T19:40:05.813Z,102042.14
2019-05-11T19:43:09.705Z,102044.38
2019-05-11T19:46:13.555Z,102049.66
2019-05-11T19:49:18.970Z,102049.24
2019-05-11T19:52:22.954Z,102051.03
2019-05-11T19:55:28.559Z,102065.16
2019-05-11T19:58:32.305Z,102074.00
2019-05-11T20:01:36.208Z,102064.31
2019-05-11T20:04:40.045Z,102063.45
2019-05-11T20:07:43.854Z,102064.31
2019-05-11T20:10:48.644Z,102073.58
2019-05-11T20:13:52.637Z,102071.40
2019-05-11T20:16:56.456Z,102071.38
2019-05-11T20:20:01.146Z,102073.59
2019-05-11T20:23:07.627Z,102081.53
2019-05-11T20:26:10.757Z,102083.28
2019-05-11T20:29:14.576Z,102100.02
2019-05-11T20:32:18.795Z,102097.41
2019-05-11T20:35:22.802Z,102107.98
2019-05-11T20:38:27.894Z,102114.17
2019-05-11T20:41:32.048Z,102116.34
2019-05-11T20:44:37.872Z,102114.56
2019-05-11T20:47:41.413Z,102116.30
2019-05-11T20:50:45.283Z,102119.83
2019-05-11T20:53:49.185Z,102119.38
2019-05-11T20:56:53.002Z,102119.83
2019-05-11T20:59:57.560Z,102137.50
2019-05-11T21:03:01.640Z,102140.98
2019-05-11T21:06:07.920Z,102144.36
2019-05-11T21:09:11.085Z,102148.42
2019-05-11T21:12:14.989Z,102148.78
2019-05-11T21:15:18.929Z,102149.19
2019-05-11T21:18:22.749Z,102154.48
2019-05-11T21:21:27.879Z,102161.86
2019-05-11T21:24:32.089Z,102167.16
2019-05-11T21:27:38.138Z,102171.16
2019-05-11T21:30:41.471Z,102180.36
2019-05-11T21:33:45.371Z,102179.42
2019-05-11T21:36:49.208Z,102182.94
2019-05-11T21:39:53.050Z,102182.00
2019-05-11T21:42:58.078Z,102183.81
2019-05-11T21:46:02.098Z,102186.41
2019-05-11T21:49:07.813Z,102184.59
2019-05-11T21:52:11.457Z,102191.70
2019-05-11T21:55:15.375Z,102199.95
2019-05-11T21:58:19.230Z,102198.55
2019-05-11T22:01:23.195Z,102195.00
2019-05-11T22:04:28.486Z,102205.45
2019-05-11T22:07:32.600Z,102204.65
2019-05-11T22:10:38.468Z,102217.78
2019-05-11T22:13:41.968Z,102226.08
2019-05-11T22:16:47.898Z,102226.22
2019-05-11T22:19:51.317Z,102231.42
2019-05-11T22:22:55.137Z,102234.97
2019-05-11T22:25:58.976Z,102237.95
2019-05-11T22:29:02.803Z,102239.20
2019-05-11T22:32:06.690Z,102240.47
2019-05-11T22:35:10.673Z,102248.31
2019-05-11T22:38:14.472Z,102255.36
2019-05-11T22:41:18.291Z,102252.55
2019-05-11T22:44:22.182Z,102255.24
2019-05-11T22:47:28.253Z,102263.69
2019-05-11T22:50:31.698Z,102258.84
2019-05-11T22:53:44.657Z,102265.80
2019-05-11T22:56:41.233Z,102271.08
2019-05-11T22:59:45.140Z,102269.75
2019-05-11T23:02:50.506Z,102275.45
2019-05-11T23:05:54.412Z,102269.70
2019-05-11T23:08:58.821Z,102275.72
2019-05-11T23:12:02.790Z,102275.27
2019-05-11T23:15:12.280Z,102278.61
2019-05-11T23:18:18.034Z,102276.02
2019-05-11T23:21:21.650Z,102278.39
2019-05-11T23:24:28.568Z,102278.65
2019-05-11T23:27:31.795Z,102272.56
2019-05-11T23:30:35.727Z,102283.09
2019-05-11T23:33:39.519Z,102286.53
2019-05-11T23:36:43.357Z,102284.79
2019-05-11T23:39:48.007Z,102287.05
2019-05-11T23:42:51.975Z,102291.06
2019-05-11T23:45:57.728Z,102293.29
2019-05-11T23:49:01.325Z,102288.75
2019-05-11T23:52:07.507Z,102289.20
2019-05-11T23:55:10.974Z,102299.85
2019-05-11T23:58:14.818Z,102293.89
